createdAt,value
2022-10-18T00:01:10.556Z,102419.44
2022-10-18T00:03:39.040Z,102421.13
2022-10-18T00:06:09.141Z,102411.41
2022-10-18T00:08:38.436Z,102408.66
2022-10-18T00:11:08.448Z,102417.47
2022-10-18T00:13:37.084Z,102417.47
2022-10-18T00:16:07.207Z,102415.66
2022-10-18T00:18:36.638Z,102407.56
2022-10-18T00:21:06.940Z,102412.78
2022-10-18T00:23:36.277Z,102408.53
2022-10-18T00:26:06.282Z,102413.81
2022-10-18T00:28:36.132Z,102414.47
2022-10-18T00:31:12.451Z,102412.59
2022-10-18T00:33:42.773Z,102401.16
2022-10-18T00:36:11.512Z,102409.88
2022-10-18T00:38:40.165Z,102407.13
2022-10-18T00:41:09.877Z,102411.50
2022-10-18T00:43:53.705Z,102409.59
2022-10-18T00:46:22.239Z,102416.84
2022-10-18T00:48:52.539Z,102415.31
2022-10-18T00:51:23.347Z,102409.28
2022-10-18T00:53:51.562Z,102411.81
2022-10-18T00:56:21.095Z,102411.00
2022-10-18T00:58:50.583Z,102411.00
2022-10-18T01:01:18.793Z,102420.59
2022-10-18T01:03:46.984Z,102417.13
2022-10-18T01:06:16.359Z,102418.75
2022-10-18T01:09:00.098Z,102416.00
2022-10-18T01:11:54.376Z,102410.72
2022-10-18T01:14:35.301Z,102414.16
2022-10-18T01:17:10.085Z,102417.63
2022-10-18T01:20:16.267Z,102417.53
2022-10-18T01:22:49.801Z,102422.00
2022-10-18T01:25:30.871Z,102428.03
2022-10-18T01:28:08.535Z,102425.38
2022-10-18T01:30:47.372Z,102425.16
2022-10-18T01:33:23.029Z,102420.00
2022-10-18T01:35:56.131Z,102424.47
2022-10-18T01:38:26.419Z,102423.34
2022-10-18T01:40:56.298Z,102419.91
2022-10-18T01:43:26.659Z,102418.22
2022-10-18T01:45:57.847Z,102417.34
2022-10-18T01:48:26.319Z,102412.84
2022-10-18T01:50:54.813Z,102411.13
2022-10-18T01:53:29.628Z,102421.63
2022-10-18T01:56:20.517Z,102417.25
2022-10-18T01:59:03.028Z,102413.78
2022-10-18T02:01:40.938Z,102414.63
2022-10-18T02:04:20.432Z,102427.00
2022-10-18T02:06:55.553Z,102435.75
2022-10-18T02:09:32.762Z,102423.44
2022-10-18T02:12:03.960Z,102412.75
2022-10-18T02:14:33.346Z,102414.47
2022-10-18T02:17:06.766Z,102419.75
2022-10-18T02:19:39.069Z,102418.06
2022-10-18T02:22:09.270Z,102424.88
2022-10-18T02:24:40.443Z,102418.84
2022-10-18T02:27:09.170Z,102418.88
2022-10-18T02:29:37.708Z,102417.03
2022-10-18T02:32:12.354Z,102417.03
2022-10-18T02:34:44.060Z,102419.66
2022-10-18T02:37:12.772Z,102425.06
2022-10-18T02:39:46.759Z,102424.97
2022-10-18T02:42:15.875Z,102429.31
2022-10-18T02:44:44.300Z,102417.88
2022-10-18T02:47:13.777Z,102420.50
2022-10-18T02:49:41.852Z,102422.31
2022-10-18T02:52:09.954Z,102424.03
2022-10-18T02:54:37.945Z,102418.75
2022-10-18T02:57:06.002Z,102409.94
2022-10-18T02:59:36.180Z,102418.66
2022-10-18T03:02:04.414Z,102425.81
2022-10-18T03:04:33.819Z,102428.44
2022-10-18T03:07:01.842Z,102428.44
2022-10-18T03:09:29.820Z,102424.13
2022-10-18T03:11:58.839Z,102429.31
2022-10-18T03:14:26.823Z,102419.66
2022-10-18T03:16:54.881Z,102422.31
2022-10-18T03:19:23.166Z,102415.72
2022-10-18T03:21:52.623Z,102420.50
2022-10-18T03:24:20.912Z,102418.06
2022-10-18T03:26:49.006Z,102419.91
2022-10-18T03:29:17.070Z,102428.91
2022-10-18T03:31:45.098Z,102423.63
2022-10-18T03:34:13.712Z,102424.72
2022-10-18T03:36:42.616Z,102425.66
2022-10-18T03:39:13.128Z,102429.25
2022-10-18T03:41:41.225Z,102436.34
2022-10-18T03:44:09.272Z,102435.47
2022-10-18T03:46:37.338Z,102431.19
2022-10-18T03:49:05.370Z,102428.63
2022-10-18T03:51:33.435Z,102426.88
2022-10-18T03:54:03.988Z,102431.38
2022-10-18T03:56:33.591Z,102431.72
2022-10-18T03:59:02.794Z,102425.56
2022-10-18T04:01:30.913Z,102421.28
2022-10-18T04:03:58.910Z,102428.31
2022-10-18T04:06:26.966Z,102431.03
2022-10-18T04:08:57.491Z,102424.22
2022-10-18T04:11:25.571Z,102426.94
2022-10-18T04:13:55.016Z,102428.81
2022-10-18T04:16:23.131Z,102434.09
2022-10-18T04:18:51.392Z,102434.09
2022-10-18T04:21:19.743Z,102431.53
2022-10-18T04:23:48.502Z,102432.47
2022-10-18T04:26:17.252Z,102430.69
2022-10-18T04:28:45.451Z,102423.69
2022-10-18T04:31:15.031Z,102419.44
2022-10-18T04:33:43.204Z,102424.72
2022-10-18T04:36:11.180Z,102427.28
2022-10-18T04:38:39.280Z,102429.16
2022-10-18T04:41:07.499Z,102423.09
2022-10-18T04:43:35.585Z,102416.97
2022-10-18T04:46:03.659Z,102424.09
2022-10-18T04:48:33.095Z,102414.50
2022-10-18T04:51:01.136Z,102421.63
2022-10-18T04:53:29.167Z,102429.47
2022-10-18T04:55:57.135Z,102426.22
2022-10-18T04:58:25.581Z,102434.44
2022-10-18T05:00:53.650Z,102438.09
2022-10-18T05:03:21.701Z,102443.19
2022-10-18T05:06:01.420Z,102443.19
2022-10-18T05:08:32.246Z,102441.44
2022-10-18T05:11:00.503Z,102436.06
2022-10-18T05:13:28.739Z,102437.91
2022-10-18T05:15:59.432Z,102430.75
2022-10-18T05:18:28.031Z,102437.84
2022-10-18T05:20:57.951Z,102438.78
2022-10-18T05:23:26.210Z,102428.22
2022-10-18T05:25:54.633Z,102432.63
2022-10-18T05:28:41.118Z,102442.53
2022-10-18T05:31:11.965Z,102449.44
2022-10-18T05:33:40.151Z,102447.75
2022-10-18T05:36:10.510Z,102440.13
2022-10-18T05:38:40.291Z,102437.66
2022-10-18T05:41:08.342Z,102441.09
2022-10-18T05:43:38.636Z,102446.28
2022-10-18T05:46:13.486Z,102448.22
2022-10-18T05:48:43.147Z,102448.31
2022-10-18T05:51:13.014Z,102450.16
2022-10-18T05:53:41.072Z,102457.25
2022-10-18T05:56:11.830Z,102456.34
2022-10-18T05:58:40.824Z,102458.19
2022-10-18T06:01:09.923Z,102465.19
2022-10-18T06:03:38.088Z,102464.44
2022-10-18T06:06:08.215Z,102472.94
2022-10-18T06:08:38.173Z,102482.94
2022-10-18T06:11:08.346Z,102488.28
2022-10-18T06:13:36.490Z,102491.00
2022-10-18T06:16:04.476Z,102488.44
2022-10-18T06:18:32.553Z,102489.47
2022-10-18T06:21:00.794Z,102499.47
2022-10-18T06:23:29.704Z,102505.88
2022-10-18T06:26:01.971Z,102506.88
2022-10-18T06:28:30.897Z,102504.16
2022-10-18T06:30:59.385Z,102509.38
2022-10-18T06:33:27.703Z,102507.66
2022-10-18T06:35:57.143Z,102512.25
2022-10-18T06:38:25.378Z,102524.63
2022-10-18T06:40:53.693Z,102524.38
2022-10-18T06:43:23.740Z,102524.31
2022-10-18T06:45:52.509Z,102522.63
2022-10-18T06:48:21.024Z,102524.09
2022-10-18T06:50:53.440Z,102539.03
2022-10-18T06:53:21.520Z,102537.47
2022-10-18T06:55:49.533Z,102550.59
2022-10-18T06:58:17.670Z,102558.53
2022-10-18T07:00:47.106Z,102556.44
2022-10-18T07:03:15.184Z,102544.78
2022-10-18T07:05:43.664Z,102556.44
2022-10-18T07:08:11.723Z,102567.69
2022-10-18T07:10:39.769Z,102581.84
2022-10-18T07:13:30.784Z,102577.41
2022-10-18T07:16:03.866Z,102563.94
2022-10-18T07:18:32.020Z,102572.84
2022-10-18T07:21:02.685Z,102580.78
2022-10-18T07:23:30.786Z,102583.53
2022-10-18T07:25:58.870Z,102585.44
2022-10-18T07:28:27.188Z,102591.28
2022-10-18T07:30:55.229Z,102594.84
2022-10-18T07:33:25.983Z,102594.81
2022-10-18T07:35:54.004Z,102591.09
2022-10-18T07:38:22.802Z,102595.91
2022-10-18T07:40:58.124Z,102592.09
2022-10-18T07:43:26.330Z,102597.84
2022-10-18T07:45:54.804Z,102603.19
2022-10-18T07:48:24.366Z,102602.31
2022-10-18T07:50:52.503Z,102594.75
2022-10-18T07:53:23.021Z,102597.19
2022-10-18T07:55:51.136Z,102608.72
2022-10-18T07:58:19.125Z,102615.25
2022-10-18T08:00:47.148Z,102617.41
2022-10-18T08:03:15.121Z,102614.69
2022-10-18T08:05:44.748Z,102618.41
2022-10-18T08:08:12.743Z,102620.25
2022-10-18T08:10:40.719Z,102622.75
2022-10-18T08:13:08.761Z,102623.00
2022-10-18T08:15:36.739Z,102626.31
2022-10-18T08:18:04.965Z,102630.38
2022-10-18T08:20:33.379Z,102636.72
2022-10-18T08:23:02.812Z,102645.53
2022-10-18T08:25:31.136Z,102638.22
2022-10-18T08:27:59.214Z,102639.47
2022-10-18T08:30:27.285Z,102641.84
2022-10-18T08:32:55.514Z,102632.31
2022-10-18T08:35:25.848Z,102645.78
2022-10-18T08:37:54.194Z,102649.19
2022-10-18T08:40:23.615Z,102651.09
2022-10-18T08:43:01.891Z,102648.13
2022-10-18T08:45:42.038Z,102659.31
2022-10-18T08:48:22.312Z,102654.28
2022-10-18T08:50:52.095Z,102648.81
2022-10-18T08:53:26.311Z,102659.06
2022-10-18T08:56:02.049Z,102653.00
2022-10-18T08:58:33.467Z,102655.03
2022-10-18T09:01:13.818Z,102670.66
2022-10-18T09:04:00.033Z,102673.53
2022-10-18T09:06:32.776Z,102662.84
2022-10-18T09:09:06.451Z,102664.69
2022-10-18T09:11:52.642Z,102656.59
2022-10-18T09:14:49.326Z,102660.25
2022-10-18T09:17:27.837Z,102668.22
2022-10-18T09:20:12.220Z,102655.78
2022-10-18T09:22:51.773Z,102655.91
2022-10-18T09:25:21.845Z,102652.59
2022-10-18T09:27:56.181Z,102662.59
2022-10-18T09:30:38.166Z,102663.69
2022-10-18T09:33:20.189Z,102659.72
2022-10-18T09:35:53.791Z,102667.19
2022-10-18T09:41:01.854Z,102660.91
2022-10-18T09:43:42.663Z,102664.38
2022-10-18T09:46:11.884Z,102661.34
2022-10-18T09:48:46.813Z,102662.94
2022-10-18T09:51:22.058Z,102670.47
2022-10-18T09:54:05.007Z,102670.47
2022-10-18T09:56:42.045Z,102668.97
2022-10-18T09:59:31.469Z,102671.63
2022-10-18T10:01:59.561Z,102678.72
2022-10-18T10:04:27.574Z,102672.72
2022-10-18T10:06:57.334Z,102682.09
2022-10-18T10:09:29.514Z,102676.53
2022-10-18T10:11:58.508Z,102679.09
2022-10-18T10:14:30.367Z,102680.41
2022-10-18T10:17:02.297Z,102677.72
2022-10-18T10:19:34.416Z,102682.13
2022-10-18T10:22:06.698Z,102686.00
2022-10-18T10:24:41.154Z,102682.31
2022-10-18T10:27:17.941Z,102680.00
2022-10-18T10:29:56.613Z,102686.53
2022-10-18T10:35:01.213Z,102687.63
2022-10-18T10:37:35.441Z,102682.28
2022-10-18T10:40:22.103Z,102679.19
2022-10-18T10:43:12.973Z,102684.75
2022-10-18T10:46:03.731Z,102686.03
2022-10-18T10:48:34.709Z,102681.19
2022-10-18T10:51:08.215Z,102675.53
2022-10-18T10:53:45.404Z,102683.88
2022-10-18T10:56:26.336Z,102695.91
2022-10-18T10:58:56.627Z,102690.13
2022-10-18T11:01:32.134Z,102681.56
2022-10-18T11:04:02.921Z,102692.19
2022-10-18T11:06:50.207Z,102690.31
2022-10-18T11:09:32.958Z,102693.63
2022-10-18T11:12:13.270Z,102697.25
2022-10-18T11:14:45.943Z,102698.84
2022-10-18T11:17:25.027Z,102690.81
2022-10-18T11:20:24.230Z,102688.09
2022-10-18T11:23:00.937Z,102698.56
2022-10-18T11:25:45.342Z,102700.25
2022-10-18T11:28:22.902Z,102695.34
2022-10-18T11:31:01.613Z,102694.28
2022-10-18T11:34:07.552Z,102690.13
2022-10-18T11:36:49.460Z,102693.19
2022-10-18T11:39:42.392Z,102686.28
2022-10-18T11:42:21.735Z,102690.03
2022-10-18T11:45:01.291Z,102686.22
2022-10-18T11:47:39.164Z,102684.56
2022-10-18T11:50:17.364Z,102676.78
2022-10-18T11:52:57.530Z,102677.63
2022-10-18T11:55:41.389Z,102679.81
2022-10-18T11:58:30.779Z,102673.31
2022-10-18T12:01:07.411Z,102673.31
2022-10-18T12:03:45.610Z,102668.91
2022-10-18T12:06:19.394Z,102669.63
2022-10-18T12:08:51.602Z,102667.91
2022-10-18T12:11:23.764Z,102665.53
2022-10-18T12:13:56.963Z,102665.09
2022-10-18T12:16:49.949Z,102664.41
2022-10-18T12:19:25.212Z,102663.66
2022-10-18T12:21:59.227Z,102656.31
2022-10-18T12:24:31.506Z,102664.69
2022-10-18T12:27:01.906Z,102662.59
2022-10-18T12:29:38.151Z,102667.50
2022-10-18T12:32:11.710Z,102653.03
2022-10-18T12:34:44.600Z,102659.91
2022-10-18T12:37:41.871Z,102659.84
2022-10-18T12:40:20.259Z,102660.66
2022-10-18T12:42:51.725Z,102653.63
2022-10-18T12:45:30.218Z,102659.00
2022-10-18T12:48:02.046Z,102657.84
2022-10-18T12:50:34.868Z,102650.88
2022-10-18T12:53:08.878Z,102650.97
2022-10-18T12:55:38.473Z,102654.97
2022-10-18T12:58:29.413Z,102657.16
2022-10-18T13:01:06.532Z,102660.97
2022-10-18T13:03:42.239Z,102654.84
2022-10-18T13:06:10.387Z,102666.84
2022-10-18T13:08:42.819Z,102652.53
2022-10-18T13:11:37.294Z,102644.53
2022-10-18T13:14:44.031Z,102637.59
2022-10-18T13:17:31.179Z,102636.81
2022-10-18T13:20:25.614Z,102630.19
2022-10-18T13:23:10.051Z,102635.91
2022-10-18T13:25:53.525Z,102629.59
2022-10-18T13:28:32.122Z,102641.16
2022-10-18T13:31:13.381Z,102632.63
2022-10-18T13:33:43.088Z,102626.34
2022-10-18T13:36:24.745Z,102626.53
2022-10-18T13:39:06.022Z,102619.78
2022-10-18T13:42:14.148Z,102629.44
2022-10-18T13:44:44.724Z,102629.88
2022-10-18T13:47:14.889Z,102634.34
2022-10-18T13:50:25.677Z,102629.38
2022-10-18T13:53:13.711Z,102633.84
2022-10-18T13:56:02.734Z,102642.25
2022-10-18T13:58:49.176Z,102641.97
2022-10-18T14:01:35.658Z,102645.50
2022-10-18T14:04:41.003Z,102647.59
2022-10-18T14:07:11.482Z,102648.56
2022-10-18T14:09:48.882Z,102648.66
2022-10-18T14:12:28.018Z,102652.00
2022-10-18T14:15:03.931Z,102649.97
2022-10-18T14:20:25.689Z,102656.38
2022-10-18T14:23:03.864Z,102658.56
2022-10-18T14:25:35.678Z,102659.88
2022-10-18T14:28:12.487Z,102651.66
2022-10-18T14:30:55.122Z,102650.22
2022-10-18T14:33:33.713Z,102656.50
2022-10-18T14:36:10.416Z,102657.56
2022-10-18T14:38:49.876Z,102655.78
2022-10-18T14:41:21.829Z,102651.50
2022-10-18T14:43:50.958Z,102652.81
2022-10-18T14:46:27.194Z,102653.03
2022-10-18T14:48:59.491Z,102650.06
2022-10-18T14:51:29.899Z,102662.19
2022-10-18T14:53:58.080Z,102663.81
2022-10-18T14:56:30.125Z,102656.00
2022-10-18T14:59:01.572Z,102657.94
2022-10-18T15:01:32.904Z,102658.34
2022-10-18T15:04:03.855Z,102664.06
2022-10-18T15:06:34.231Z,102658.50
2022-10-18T15:09:06.745Z,102661.03
2022-10-18T15:11:35.396Z,102663.75
2022-10-18T15:14:08.536Z,102659.47
2022-10-18T15:16:39.615Z,102666.59
2022-10-18T15:19:24.934Z,102664.22
2022-10-18T15:22:13.658Z,102659.22
2022-10-18T15:24:44.928Z,102663.81
2022-10-18T15:27:16.153Z,102662.47
2022-10-18T15:29:46.753Z,102653.78
2022-10-18T15:32:22.625Z,102657.94
2022-10-18T15:34:50.739Z,102661.38
2022-10-18T15:37:32.193Z,102659.28
2022-10-18T15:40:41.992Z,102662.97
2022-10-18T15:43:36.240Z,102667.44
2022-10-18T15:46:07.047Z,102670.88
2022-10-18T15:48:39.733Z,102665.06
2022-10-18T15:51:09.766Z,102663.75
2022-10-18T15:53:52.121Z,102668.59
2022-10-18T15:56:35.121Z,102666.03
2022-10-18T15:59:04.995Z,102670.97
2022-10-18T16:01:36.611Z,102675.22
2022-10-18T16:04:12.300Z,102671.94
2022-10-18T16:06:40.350Z,102682.16
2022-10-18T16:09:08.399Z,102679.97
2022-10-18T16:11:36.411Z,102676.22
2022-10-18T16:14:04.739Z,102685.94
2022-10-18T16:16:32.984Z,102694.16
2022-10-18T16:19:01.041Z,102691.16
2022-10-18T16:21:32.556Z,102689.44
2022-10-18T16:24:00.825Z,102685.81
2022-10-18T16:26:29.810Z,102690.69
2022-10-18T16:28:59.106Z,102687.75
2022-10-18T16:31:28.683Z,102692.28
2022-10-18T16:33:58.529Z,102695.63
2022-10-18T16:36:29.115Z,102692.41
2022-10-18T16:39:00.859Z,102697.59
2022-10-18T16:41:29.261Z,102698.13
2022-10-18T16:43:57.250Z,102696.84
2022-10-18T16:46:27.709Z,102707.78
2022-10-18T16:48:56.396Z,102711.44
2022-10-18T16:51:26.947Z,102707.09
2022-10-18T16:53:55.488Z,102710.75
2022-10-18T16:56:28.259Z,102715.78
2022-10-18T16:58:56.475Z,102713.63
2022-10-18T17:01:25.656Z,102726.28
2022-10-18T17:03:54.170Z,102723.94
2022-10-18T17:06:24.629Z,102727.59
2022-10-18T17:08:54.032Z,102731.53
2022-10-18T17:11:25.598Z,102727.69
2022-10-18T17:13:54.343Z,102736.81
2022-10-18T17:16:26.697Z,102733.06
2022-10-18T17:18:54.786Z,102737.19
2022-10-18T17:21:23.773Z,102739.31
2022-10-18T17:23:52.040Z,102737.81
2022-10-18T17:26:30.159Z,102742.03
2022-10-18T17:29:02.007Z,102741.75
2022-10-18T17:31:31.276Z,102742.75
2022-10-18T17:34:01.795Z,102746.91
2022-10-18T17:36:30.858Z,102757.44
2022-10-18T17:38:59.689Z,102757.06
2022-10-18T17:41:27.844Z,102768.03
2022-10-18T17:43:55.903Z,102764.59
2022-10-18T17:46:25.567Z,102763.88
2022-10-18T17:48:54.875Z,102762.44
2022-10-18T17:51:23.281Z,102766.97
2022-10-18T17:53:51.334Z,102762.00
2022-10-18T17:56:19.410Z,102751.84
2022-10-18T17:58:51.572Z,102769.69
2022-10-18T18:01:21.923Z,102758.69
2022-10-18T18:03:52.212Z,102767.66
2022-10-18T18:06:22.625Z,102775.91
2022-10-18T18:08:51.415Z,102770.78
2022-10-18T18:11:19.673Z,102777.19
2022-10-18T18:13:47.708Z,102785.50
2022-10-18T18:16:17.924Z,102793.56
2022-10-18T18:18:47.369Z,102794.34
2022-10-18T18:21:17.177Z,102813.78
2022-10-18T18:23:45.732Z,102803.22
2022-10-18T18:26:14.297Z,102801.56
2022-10-18T18:28:42.446Z,102802.25
2022-10-18T18:31:13.127Z,102798.00
2022-10-18T18:33:41.260Z,102797.47
2022-10-18T18:36:10.156Z,102789.00
2022-10-18T18:38:42.587Z,102802.06
2022-10-18T18:41:15.826Z,102800.53
2022-10-18T18:43:46.366Z,102798.16
2022-10-18T18:46:14.636Z,102800.97
2022-10-18T18:48:43.082Z,102795.03
2022-10-18T18:51:13.719Z,102806.56
2022-10-18T18:53:44.635Z,102800.44
2022-10-18T18:56:15.193Z,102803.28
2022-10-18T18:58:45.071Z,102801.50
2022-10-18T19:01:17.348Z,102805.16
2022-10-18T19:03:46.265Z,102804.47
2022-10-18T19:06:16.675Z,102809.81
2022-10-18T19:08:46.958Z,102800.88
2022-10-18T19:11:18.057Z,102816.19
2022-10-18T19:13:46.726Z,102811.84
2022-10-18T19:16:23.900Z,102817.16
2022-10-18T19:18:57.099Z,102824.50
2022-10-18T19:21:27.230Z,102816.09
2022-10-18T19:23:57.259Z,102807.50
2022-10-18T19:26:29.125Z,102813.59
2022-10-18T19:29:01.996Z,102813.97
2022-10-18T19:31:30.415Z,102828.38
2022-10-18T19:33:59.621Z,102828.38
2022-10-18T19:36:28.343Z,102823.94
2022-10-18T19:38:58.249Z,102812.81
2022-10-18T19:41:28.740Z,102821.63
2022-10-18T19:43:57.676Z,102815.06
2022-10-18T19:46:26.005Z,102806.28
2022-10-18T19:48:55.046Z,102812.03
2022-10-18T19:51:27.041Z,102814.38
2022-10-18T19:53:58.435Z,102812.66
2022-10-18T19:56:28.083Z,102811.16
2022-10-18T19:58:57.260Z,102812.13
2022-10-18T20:01:25.745Z,102813.19
2022-10-18T20:03:53.984Z,102807.88
2022-10-18T20:06:22.493Z,102809.78
2022-10-18T20:08:50.995Z,102806.38
2022-10-18T20:11:21.968Z,102811.88
2022-10-18T20:13:50.550Z,102812.84
2022-10-18T20:16:25.486Z,102811.25
2022-10-18T20:18:57.780Z,102807.94
2022-10-18T20:21:26.954Z,102816.66
2022-10-18T20:23:55.616Z,102820.19
2022-10-18T20:26:26.400Z,102812.31
2022-10-18T20:28:57.926Z,102816.72
2022-10-18T20:31:28.366Z,102818.28
2022-10-18T20:33:58.130Z,102821.94
2022-10-18T20:36:27.331Z,102831.69
2022-10-18T20:38:55.949Z,102820.50
2022-10-18T20:41:27.225Z,102833.72
2022-10-18T20:43:57.830Z,102824.19
2022-10-18T20:46:26.272Z,102824.44
2022-10-18T20:48:54.964Z,102828.16
2022-10-18T20:51:26.582Z,102826.47
2022-10-18T20:53:54.703Z,102833.34
2022-10-18T20:56:26.737Z,102825.91
2022-10-18T20:58:56.807Z,102819.25
2022-10-18T21:01:26.875Z,102817.63
2022-10-18T21:03:57.333Z,102809.13
2022-10-18T21:06:27.546Z,102806.66
2022-10-18T21:08:56.883Z,102807.56
2022-10-18T21:11:27.523Z,102810.19
2022-10-18T21:13:57.551Z,102805.03
2022-10-18T21:16:26.122Z,102809.50
2022-10-18T21:18:54.906Z,102800.06
2022-10-18T21:21:25.200Z,102793.75
2022-10-18T21:23:54.606Z,102801.78
2022-10-18T21:26:24.587Z,102801.94
2022-10-18T21:28:56.703Z,102800.31
2022-10-18T21:31:26.601Z,102795.13
2022-10-18T21:33:58.985Z,102801.38
2022-10-18T21:36:27.987Z,102803.94
2022-10-18T21:38:56.006Z,102804.88
2022-10-18T21:41:25.242Z,102797.16
2022-10-18T21:43:56.014Z,102791.97
2022-10-18T21:46:26.926Z,102795.44
2022-10-18T21:48:56.937Z,102792.09
2022-10-18T21:51:26.598Z,102789.38
2022-10-18T21:53:59.123Z,102800.09
2022-10-18T21:56:32.402Z,102792.13
2022-10-18T21:59:02.915Z,102804.59
2022-10-18T22:01:33.445Z,102795.09
2022-10-18T22:04:03.052Z,102803.97
2022-10-18T22:09:07.140Z,102807.28
2022-10-18T22:11:38.841Z,102804.81
2022-10-18T22:14:08.373Z,102800.66
2022-10-18T22:16:36.558Z,102796.44
2022-10-18T22:19:06.063Z,102796.50
2022-10-18T22:21:34.642Z,102801.03
2022-10-18T22:24:06.016Z,102795.94
2022-10-18T22:26:36.432Z,102792.41
2022-10-18T22:29:08.253Z,102799.56
2022-10-18T22:31:42.571Z,102797.69
2022-10-18T22:34:13.927Z,102795.97
2022-10-18T22:36:42.326Z,102790.94
2022-10-18T22:39:11.203Z,102803.13
2022-10-18T22:41:39.550Z,102801.44
2022-10-18T22:44:08.147Z,102793.41
2022-10-18T22:46:36.680Z,102791.69
2022-10-18T22:49:06.173Z,102791.63
2022-10-18T22:54:03.541Z,102791.63
2022-10-18T22:56:31.560Z,102777.63
2022-10-18T22:58:59.661Z,102787.31
2022-10-18T23:01:27.956Z,102785.78
2022-10-18T23:03:56.580Z,102787.56
2022-10-18T23:06:28.094Z,102784.78
2022-10-18T23:08:58.257Z,102795.44
2022-10-18T23:11:30.076Z,102792.81
2022-10-18T23:13:58.406Z,102786.81
2022-10-18T23:16:26.455Z,102787.78
2022-10-18T23:18:56.915Z,102792.06
2022-10-18T23:21:28.283Z,102792.34
2022-10-18T23:23:57.250Z,102784.41
2022-10-18T23:26:27.746Z,102788.78
2022-10-18T23:28:56.780Z,102789.72
2022-10-18T23:31:26.846Z,102782.78
2022-10-18T23:33:56.269Z,102790.66
2022-10-18T23:36:26.203Z,102785.41
2022-10-18T23:38:55.176Z,102788.84
2022-10-18T23:41:23.634Z,102791.69
2022-10-18T23:43:52.605Z,102784.59
2022-10-18T23:46:21.321Z,102791.72
2022-10-18T23:48:50.024Z,102789.06
2022-10-18T23:51:18.830Z,102795.38
2022-10-18T23:53:48.545Z,102788.13
2022-10-18T23:56:17.619Z,102789.38
2022-10-18T23:58:46.282Z,102793.78
